createdAt,value
2018-06-21T00:00:49.222Z,625.72
2018-06-21T00:03:17.935Z,597.02
2018-06-21T00:05:46.687Z,391.60
2018-06-21T00:08:15.453Z,432.92
2018-06-21T00:10:44.153Z,550.87
2018-06-21T00:13:12.965Z,625.45
2018-06-21T00:15:41.692Z,506.93
2018-06-21T00:18:11.381Z,467.30
2018-06-21T00:20:40.043Z,622.08
2018-06-21T00:23:08.838Z,524.97
2018-06-21T00:25:37.809Z,638.05
2018-06-21T00:28:06.480Z,455.33
2018-06-21T00:30:35.256Z,671.25
2018-06-21T00:33:03.969Z,719.28
2018-06-21T00:35:32.714Z,748.10
2018-06-21T00:38:01.392Z,739.20
2018-06-21T00:40:30.196Z,549.90
2018-06-21T00:42:58.878Z,535.90
2018-06-21T00:45:27.576Z,499.77
2018-06-21T00:47:56.263Z,507.88
2018-06-21T00:50:25.577Z,518.45
2018-06-21T00:52:54.327Z,546.75
2018-06-21T00:55:34.142Z,506.93
2018-06-21T00:58:02.960Z,607.52
2018-06-21T01:00:31.316Z,575.90
2018-06-21T01:03:00.043Z,413.68
2018-06-21T01:05:28.744Z,514.97
2018-06-21T01:07:57.445Z,486.02
2018-06-21T01:10:26.161Z,463.40
2018-06-21T01:12:54.885Z,478.25
2018-06-21T01:15:23.529Z,277.18
2018-06-21T01:17:52.299Z,416.23
2018-06-21T01:20:21.020Z,409.50
2018-06-21T01:22:49.711Z,392.23
2018-06-21T01:25:18.532Z,459.73
2018-06-21T01:27:47.239Z,502.23
2018-06-21T01:30:15.961Z,375.20
2018-06-21T01:32:44.753Z,475.65
2018-06-21T01:35:13.456Z,476.43
2018-06-21T01:37:42.130Z,384.98
2018-06-21T01:40:10.888Z,141.88
2018-06-21T01:42:39.604Z,559.20
2018-06-21T01:45:09.350Z,326.12
2018-06-21T01:47:38.069Z,403.18
2018-06-21T01:50:06.777Z,271.80
2018-06-21T01:52:35.473Z,561.50
2018-06-21T01:55:04.265Z,536.75
2018-06-21T01:57:32.973Z,498.60
2018-06-21T02:00:01.778Z,539.10
2018-06-21T02:02:30.596Z,502.60
2018-06-21T02:04:59.260Z,564.40
2018-06-21T02:07:28.042Z,506.65
2018-06-21T02:09:58.717Z,526.77
2018-06-21T02:12:28.395Z,531.70
2018-06-21T02:14:57.123Z,569.47
2018-06-21T02:17:25.912Z,568.83
2018-06-21T02:19:54.609Z,597.23
2018-06-21T02:22:24.325Z,387.53
2018-06-21T02:24:53.060Z,382.23
2018-06-21T02:27:22.294Z,570.83
2018-06-21T02:29:51.932Z,520.30
2018-06-21T02:32:20.731Z,573.20
2018-06-21T02:34:49.473Z,595.08
2018-06-21T02:37:19.186Z,582.35
2018-06-21T02:39:49.002Z,520.25
2018-06-21T02:42:17.633Z,469.10
2018-06-21T02:44:46.300Z,556.70
2018-06-21T02:47:15.033Z,620.27
2018-06-21T02:49:44.541Z,549.55
2018-06-21T02:52:13.281Z,667.77
2018-06-21T02:54:41.944Z,669.75
2018-06-21T02:57:10.651Z,637.88
2018-06-21T02:59:39.292Z,639.67
2018-06-21T03:02:08.040Z,518.67
2018-06-21T03:04:36.669Z,452.25
2018-06-21T03:07:05.384Z,304.38
2018-06-21T03:09:34.127Z,427.43
2018-06-21T03:12:02.844Z,434.25
2018-06-21T03:14:31.585Z,439.65
2018-06-21T03:17:00.261Z,480.22
2018-06-21T03:19:28.918Z,400.60
2018-06-21T03:22:01.706Z,446.25
2018-06-21T03:24:30.422Z,460.52
2018-06-21T03:26:59.136Z,523.37
2018-06-21T03:29:28.013Z,695.25
2018-06-21T03:31:56.669Z,624.50
2018-06-21T03:34:25.723Z,682.52
2018-06-21T03:36:55.541Z,640.83
2018-06-21T03:39:24.201Z,767.30
2018-06-21T03:41:52.846Z,718.15
2018-06-21T03:44:21.209Z,748.80
2018-06-21T03:46:49.870Z,678.97
2018-06-21T03:49:18.556Z,677.25
2018-06-21T03:51:47.263Z,753.08
2018-06-21T03:54:15.951Z,774.73
2018-06-21T03:56:44.611Z,754.80
2018-06-21T03:59:13.325Z,786.95
2018-06-21T04:01:42.032Z,755.90
2018-06-21T04:04:10.782Z,793.92
2018-06-21T04:06:39.488Z,793.05
2018-06-21T04:09:09.853Z,792.07
2018-06-21T04:11:38.664Z,788.90
2018-06-21T04:14:07.436Z,780.17
2018-06-21T04:16:36.501Z,778.50
2018-06-21T04:19:05.588Z,781.17
2018-06-21T04:21:36.411Z,799.73
2018-06-21T04:24:05.419Z,811.82
2018-06-21T04:26:34.135Z,829.42
2018-06-21T04:29:03.082Z,860.33
2018-06-21T04:31:32.760Z,858.87
2018-06-21T04:34:01.440Z,875.77
2018-06-21T04:36:30.132Z,934.42
2018-06-21T04:38:58.823Z,904.97
2018-06-21T04:41:27.569Z,909.85
2018-06-21T04:43:56.231Z,928.48
2018-06-21T04:46:25.118Z,891.05
2018-06-21T04:48:54.140Z,937.55
2018-06-21T04:51:22.993Z,877.90
2018-06-21T04:53:51.794Z,815.25
2018-06-21T04:56:20.600Z,756.67
2018-06-21T04:58:51.369Z,816.87
2018-06-21T05:01:20.021Z,754.98
2018-06-21T05:03:49.141Z,902.00
2018-06-21T05:06:18.031Z,685.50
2018-06-21T05:08:46.797Z,550.00
2018-06-21T05:11:15.490Z,589.90
2018-06-21T05:13:44.312Z,347.30
2018-06-21T05:16:13.442Z,383.02
2018-06-21T05:18:42.189Z,466.85
2018-06-21T05:21:10.943Z,467.43
2018-06-21T05:23:39.597Z,419.67
2018-06-21T05:26:08.316Z,500.07
2018-06-21T05:28:37.039Z,344.57
2018-06-21T05:31:05.667Z,380.67
2018-06-21T05:33:36.392Z,642.03
2018-06-21T05:36:05.894Z,487.92
2018-06-21T05:38:47.481Z,731.52
2018-06-21T05:41:16.466Z,738.13
2018-06-21T05:43:45.184Z,840.53
2018-06-21T05:46:13.843Z,420.62
2018-06-21T05:48:46.494Z,534.85
2018-06-21T05:51:17.232Z,575.60
2018-06-21T05:53:47.954Z,547.17
2018-06-21T05:56:16.617Z,469.07
2018-06-21T05:58:48.542Z,962.83
2018-06-21T06:01:18.792Z,999.47
2018-06-21T06:03:48.405Z,997.75
2018-06-21T06:06:20.096Z,999.90
2018-06-21T06:08:51.705Z,999.90
2018-06-21T06:11:27.960Z,931.15
2018-06-21T06:14:00.117Z,999.90
2018-06-21T06:16:30.053Z,999.90
2018-06-21T06:19:00.160Z,980.65
2018-06-21T06:21:29.142Z,974.70
2018-06-21T06:24:02.887Z,948.35
2018-06-21T06:26:39.012Z,960.80
2018-06-21T06:29:08.587Z,999.90
2018-06-21T06:31:41.016Z,999.90
2018-06-21T06:34:10.664Z,999.90
2018-06-21T06:36:39.412Z,999.90
2018-06-21T06:39:17.830Z,999.90
2018-06-21T06:41:48.883Z,999.90
2018-06-21T06:44:18.301Z,999.90
2018-06-21T06:46:47.736Z,999.90
2018-06-21T06:49:17.840Z,999.90
2018-06-21T06:51:47.762Z,999.90
2018-06-21T06:54:17.824Z,999.90
2018-06-21T06:56:47.307Z,999.90
2018-06-21T06:59:16.990Z,969.60
2018-06-21T07:01:46.591Z,955.05
2018-06-21T07:04:15.989Z,999.90
2018-06-21T07:06:45.680Z,999.90
2018-06-21T07:09:16.144Z,999.90
2018-06-21T07:11:53.208Z,999.90
2018-06-21T07:14:21.885Z,961.95
2018-06-21T07:16:53.203Z,986.30
2018-06-21T07:19:22.077Z,943.70
2018-06-21T07:21:50.749Z,871.03
2018-06-21T07:24:20.341Z,870.27
2018-06-21T07:26:51.943Z,980.72
2018-06-21T07:29:21.741Z,861.67
2018-06-21T07:31:50.078Z,909.67
2018-06-21T07:34:19.628Z,691.17
2018-06-21T07:36:50.142Z,711.28
2018-06-21T07:39:19.234Z,549.80
2018-06-21T07:41:49.696Z,803.88
2018-06-21T07:44:19.427Z,792.87
2018-06-21T07:46:48.137Z,824.50
2018-06-21T07:49:16.813Z,863.15
2018-06-21T07:51:45.667Z,862.20
2018-06-21T07:54:17.990Z,480.73
2018-06-21T07:56:46.716Z,829.73
2018-06-21T07:59:15.352Z,581.80
2018-06-21T08:01:43.974Z,591.65
2018-06-21T08:04:13.696Z,750.75
2018-06-21T08:06:43.079Z,621.55
2018-06-21T08:09:13.097Z,628.23
2018-06-21T08:11:41.413Z,999.90
2018-06-21T08:14:10.050Z,999.90
2018-06-21T08:16:39.824Z,999.90
2018-06-21T08:19:08.654Z,999.90
2018-06-21T08:21:37.376Z,988.18
2018-06-21T08:24:06.278Z,999.90
2018-06-21T08:26:34.893Z,989.38
2018-06-21T08:29:03.615Z,946.03
2018-06-21T08:31:32.258Z,957.42
2018-06-21T08:34:01.080Z,956.47
2018-06-21T08:36:29.782Z,958.07
2018-06-21T08:38:58.578Z,962.95
2018-06-21T08:41:33.509Z,985.80
2018-06-21T08:44:03.201Z,953.77
2018-06-21T08:46:33.868Z,971.87
2018-06-21T08:49:02.661Z,949.20
2018-06-21T08:51:31.403Z,964.95
2018-06-21T08:54:00.124Z,952.73
2018-06-21T08:56:30.719Z,962.08
2018-06-21T08:58:59.573Z,962.47
2018-06-21T09:01:28.256Z,828.35
2018-06-21T09:03:57.027Z,737.62
2018-06-21T09:06:25.656Z,606.87
2018-06-21T09:08:54.501Z,952.80
2018-06-21T09:11:23.285Z,871.03
2018-06-21T09:13:51.979Z,494.13
2018-06-21T09:16:20.728Z,497.37
2018-06-21T09:18:49.446Z,569.45
2018-06-21T09:21:18.165Z,790.70
2018-06-21T09:23:46.875Z,805.87
2018-06-21T09:26:15.549Z,446.50
2018-06-21T09:28:45.239Z,475.03
2018-06-21T09:31:13.975Z,220.37
2018-06-21T09:33:42.923Z,420.03
2018-06-21T09:36:11.542Z,579.53
2018-06-21T09:38:45.528Z,304.97
2018-06-21T09:41:19.330Z,60.63
2018-06-21T09:44:03.830Z,24.02
2018-06-21T09:46:33.876Z,102.00
2018-06-21T09:48:57.854Z,108.47
2018-06-21T09:51:28.119Z,351.93
2018-06-21T09:53:58.851Z,142.87
2018-06-21T09:56:27.425Z,207.72
2018-06-21T09:58:57.178Z,268.70
2018-06-21T10:01:25.920Z,310.88
2018-06-21T10:03:55.628Z,438.57
2018-06-21T10:06:25.239Z,61.47
2018-06-21T10:08:54.037Z,35.03
2018-06-21T10:11:22.741Z,31.47
2018-06-21T10:13:51.390Z,34.95
2018-06-21T10:16:20.110Z,148.65
2018-06-21T10:18:52.602Z,169.45
2018-06-21T10:21:23.400Z,12.95
2018-06-21T10:23:54.084Z,16.17
2018-06-21T10:26:22.827Z,112.68
2018-06-21T10:28:54.191Z,5.47
2018-06-21T10:31:22.913Z,7.57
2018-06-21T10:33:51.557Z,6.33
2018-06-21T10:36:20.164Z,6.53
2018-06-21T10:38:49.966Z,10.20
2018-06-21T10:41:20.574Z,5.15
2018-06-21T10:43:49.256Z,999.90
2018-06-21T10:46:18.886Z,999.90
2018-06-21T10:48:47.534Z,931.85
2018-06-21T10:51:16.144Z,999.90
2018-06-21T10:53:46.058Z,999.90
2018-06-21T10:56:17.337Z,999.90
2018-06-21T10:58:46.028Z,999.90
2018-06-21T11:01:14.933Z,999.90
2018-06-21T11:03:43.636Z,999.90
2018-06-21T11:06:13.385Z,999.90
2018-06-21T11:08:42.101Z,889.90
2018-06-21T11:11:10.839Z,999.90
2018-06-21T11:13:39.534Z,999.90
2018-06-21T11:16:07.963Z,999.90
2018-06-21T11:18:36.607Z,999.90
2018-06-21T11:21:05.308Z,999.90
2018-06-21T11:23:36.008Z,999.90
2018-06-21T11:26:04.891Z,999.90
2018-06-21T11:28:36.564Z,999.90
2018-06-21T11:31:05.366Z,999.90
2018-06-21T11:33:34.007Z,999.90
2018-06-21T11:36:04.773Z,999.90
2018-06-21T11:38:33.456Z,999.90
2018-06-21T11:41:03.157Z,999.90
2018-06-21T11:43:34.953Z,999.90
2018-06-21T11:46:04.604Z,999.90
2018-06-21T11:48:37.149Z,999.90
2018-06-21T11:51:05.840Z,999.90
2018-06-21T11:53:34.471Z,906.93
2018-06-21T11:56:03.163Z,999.90
2018-06-21T11:58:31.943Z,999.90
2018-06-21T12:01:01.717Z,999.90
2018-06-21T12:03:31.354Z,999.90
2018-06-21T12:06:00.090Z,999.90
2018-06-21T12:08:28.806Z,999.90
2018-06-21T12:11:02.385Z,999.90
2018-06-21T12:13:31.136Z,999.90
2018-06-21T12:15:59.875Z,999.90
2018-06-21T12:18:30.579Z,999.90
2018-06-21T12:20:59.316Z,999.90
2018-06-21T12:23:28.054Z,999.90
2018-06-21T12:25:57.761Z,800.13
2018-06-21T12:28:26.082Z,999.90
2018-06-21T12:30:54.744Z,999.90
2018-06-21T12:33:24.481Z,999.90
2018-06-21T12:35:53.175Z,999.90
2018-06-21T12:38:21.847Z,999.90
2018-06-21T12:40:50.669Z,999.90
2018-06-21T12:43:19.344Z,999.90
2018-06-21T12:45:50.123Z,999.90
2018-06-21T12:48:20.982Z,999.90
2018-06-21T12:50:49.638Z,999.90
2018-06-21T12:53:18.263Z,999.90
2018-06-21T12:55:46.932Z,753.03
2018-06-21T12:58:17.525Z,999.90
2018-06-21T13:00:47.189Z,999.10
2018-06-21T13:03:15.863Z,999.90
2018-06-21T13:05:44.532Z,999.90
2018-06-21T13:08:24.567Z,999.90
2018-06-21T13:11:04.092Z,999.90
2018-06-21T13:13:32.729Z,999.90
2018-06-21T13:16:01.379Z,999.90
2018-06-21T13:18:31.080Z,999.90
2018-06-21T13:20:59.796Z,968.62
2018-06-21T13:23:28.399Z,879.72
2018-06-21T13:25:57.135Z,999.90
2018-06-21T13:28:25.845Z,999.90
2018-06-21T13:30:55.588Z,999.90
2018-06-21T13:33:24.236Z,999.90
2018-06-21T13:35:52.878Z,999.90
2018-06-21T13:38:21.536Z,999.90
2018-06-21T13:40:51.184Z,844.75
2018-06-21T13:43:20.856Z,745.77
2018-06-21T13:45:49.552Z,758.15
2018-06-21T13:48:18.179Z,819.60
2018-06-21T13:50:46.814Z,924.27
2018-06-21T13:53:15.440Z,816.62
2018-06-21T13:55:44.099Z,799.48
2018-06-21T13:58:13.816Z,865.67
2018-06-21T14:00:42.449Z,774.73
2018-06-21T14:03:11.157Z,872.47
2018-06-21T14:05:39.447Z,860.30
2018-06-21T14:08:08.267Z,939.83
2018-06-21T14:10:37.583Z,916.17
2018-06-21T14:13:06.234Z,938.93
2018-06-21T14:15:34.873Z,985.77
2018-06-21T14:18:03.166Z,945.33
2018-06-21T14:20:31.966Z,935.10
2018-06-21T14:23:00.557Z,922.85
2018-06-21T14:25:29.431Z,985.45
2018-06-21T14:27:58.152Z,999.90
2018-06-21T14:30:26.846Z,999.90
2018-06-21T14:32:55.518Z,999.90
2018-06-21T14:35:25.272Z,999.90
2018-06-21T14:37:54.925Z,999.90
2018-06-21T14:40:25.841Z,999.90
2018-06-21T14:42:56.869Z,999.90
2018-06-21T14:45:26.453Z,999.90
2018-06-21T14:47:55.109Z,999.90
2018-06-21T14:50:24.848Z,999.90
2018-06-21T14:52:53.522Z,999.90
2018-06-21T14:55:22.196Z,999.90
2018-06-21T14:57:51.645Z,999.90
2018-06-21T15:00:20.330Z,999.90
2018-06-21T15:02:50.101Z,999.90
2018-06-21T15:05:18.902Z,999.90
2018-06-21T15:07:47.589Z,999.90
2018-06-21T15:10:17.200Z,999.90
2018-06-21T15:12:45.894Z,999.90
2018-06-21T15:15:14.552Z,999.90
2018-06-21T15:17:43.549Z,999.90
2018-06-21T15:20:13.223Z,999.90
2018-06-21T15:22:42.895Z,999.90
2018-06-21T15:25:11.623Z,999.90
2018-06-21T15:27:40.461Z,530.87
2018-06-21T15:30:10.175Z,999.90
2018-06-21T15:32:38.883Z,999.90
2018-06-21T15:35:07.542Z,999.90
2018-06-21T15:37:36.255Z,966.50
2018-06-21T15:40:04.971Z,824.77
2018-06-21T15:42:33.723Z,999.90
2018-06-21T15:45:02.421Z,999.90
2018-06-21T15:47:31.204Z,999.00
2018-06-21T15:49:59.869Z,999.90
2018-06-21T15:52:28.655Z,999.90
2018-06-21T15:54:56.977Z,999.90
2018-06-21T15:57:25.900Z,999.90
2018-06-21T15:59:54.514Z,999.90
2018-06-21T16:02:23.232Z,999.90
2018-06-21T16:04:51.590Z,999.90
2018-06-21T16:07:20.274Z,999.90
2018-06-21T16:09:49.042Z,999.90
2018-06-21T16:12:17.703Z,999.90
2018-06-21T16:14:46.423Z,999.90
2018-06-21T16:17:15.083Z,999.90
2018-06-21T16:19:43.844Z,999.90
2018-06-21T16:22:12.550Z,999.90
2018-06-21T16:24:41.224Z,999.90
2018-06-21T16:27:09.974Z,489.27
2018-06-21T16:29:39.717Z,657.50
2018-06-21T16:32:08.406Z,734.05
2018-06-21T16:34:37.068Z,903.48
2018-06-21T16:37:05.883Z,539.00
2018-06-21T16:39:35.648Z,916.13
2018-06-21T16:42:04.413Z,881.25
2018-06-21T16:44:35.379Z,937.72
2018-06-21T16:47:04.096Z,893.95
2018-06-21T16:49:33.784Z,999.90
2018-06-21T16:52:02.444Z,999.90
2018-06-21T16:54:31.165Z,886.67
2018-06-21T16:57:00.859Z,660.70
2018-06-21T16:59:32.694Z,891.73
2018-06-21T17:02:01.379Z,843.50
2018-06-21T17:04:30.179Z,978.13
2018-06-21T17:06:59.834Z,920.55
2018-06-21T17:09:30.678Z,904.70
2018-06-21T17:11:59.451Z,999.90
2018-06-21T17:14:28.134Z,999.90
2018-06-21T17:16:58.549Z,954.55
2018-06-21T17:19:27.277Z,999.90
2018-06-21T17:21:55.932Z,999.90
2018-06-21T17:24:26.030Z,999.90
2018-06-21T17:26:55.315Z,999.90
2018-06-21T17:29:26.134Z,999.90
2018-06-21T17:31:54.840Z,999.90
2018-06-21T17:34:23.580Z,999.90
2018-06-21T17:36:52.364Z,999.90
2018-06-21T17:39:21.142Z,999.90
2018-06-21T17:41:50.743Z,999.90
2018-06-21T17:44:20.550Z,996.03
2018-06-21T17:46:50.288Z,999.90
2018-06-21T17:49:20.418Z,999.90
2018-06-21T17:51:49.388Z,977.92
2018-06-21T17:54:18.154Z,999.90
2018-06-21T17:56:47.943Z,999.90
2018-06-21T17:59:19.683Z,999.90
2018-06-21T18:01:48.369Z,999.90
2018-06-21T18:04:17.023Z,999.90
2018-06-21T18:06:45.778Z,999.90
2018-06-21T18:09:16.432Z,999.90
2018-06-21T18:11:45.198Z,999.90
2018-06-21T18:14:13.885Z,999.90
2018-06-21T18:16:42.679Z,999.90
2018-06-21T18:19:12.142Z,805.27
2018-06-21T18:21:41.631Z,999.90
2018-06-21T18:24:10.345Z,999.90
2018-06-21T18:26:39.269Z,999.90
2018-06-21T18:29:08.141Z,999.90
2018-06-21T18:31:37.074Z,999.90
2018-06-21T18:34:06.787Z,999.90
2018-06-21T18:36:35.728Z,999.90
2018-06-21T18:39:06.060Z,999.90
2018-06-21T18:41:35.793Z,999.90
2018-06-21T18:44:05.536Z,999.90
2018-06-21T18:46:34.923Z,999.90
2018-06-21T18:49:04.943Z,999.90
2018-06-21T18:51:33.775Z,998.32
2018-06-21T18:54:03.054Z,988.85
2018-06-21T18:56:31.909Z,991.77
2018-06-21T18:59:00.812Z,999.90
2018-06-21T19:01:31.901Z,971.37
2018-06-21T19:04:00.677Z,995.83
2018-06-21T19:06:34.728Z,971.18
2018-06-21T19:09:09.127Z,793.13
2018-06-21T19:11:47.234Z,987.23
2018-06-21T19:14:17.836Z,988.90
2018-06-21T19:16:46.760Z,998.38
2018-06-21T19:19:15.687Z,883.05
2018-06-21T19:21:45.900Z,992.28
2018-06-21T19:24:14.916Z,981.05
2018-06-21T19:26:43.625Z,979.87
2018-06-21T19:29:12.675Z,971.53
2018-06-21T19:31:41.471Z,959.17
2018-06-21T19:34:11.158Z,952.62
2018-06-21T19:36:40.998Z,947.25
2018-06-21T19:39:12.219Z,953.60
2018-06-21T19:41:44.774Z,950.95
2018-06-21T19:44:13.949Z,939.70
2018-06-21T19:46:43.707Z,943.43
2018-06-21T19:49:12.363Z,929.05
2018-06-21T19:51:41.118Z,949.70
2018-06-21T19:54:13.690Z,936.13
2018-06-21T19:56:43.291Z,939.32
2018-06-21T19:59:18.590Z,943.97
2018-06-21T20:01:48.109Z,949.05
2018-06-21T20:04:18.930Z,949.58
2018-06-21T20:06:49.027Z,942.40
2018-06-21T20:09:18.103Z,943.97
2018-06-21T20:11:46.838Z,949.15
2018-06-21T20:14:15.653Z,954.85
2018-06-21T20:16:47.450Z,933.77
2018-06-21T20:19:18.740Z,941.87
2018-06-21T20:21:49.946Z,950.35
2018-06-21T20:24:18.888Z,946.48
2018-06-21T20:26:49.712Z,939.65
2018-06-21T20:29:19.989Z,945.70
2018-06-21T20:31:49.755Z,942.35
2018-06-21T20:34:19.647Z,906.90
2018-06-21T20:36:52.711Z,889.35
2018-06-21T20:39:21.770Z,887.63
2018-06-21T20:41:50.398Z,886.22
2018-06-21T20:44:20.141Z,874.75
2018-06-21T20:46:48.843Z,875.13
2018-06-21T20:49:17.694Z,895.77
2018-06-21T20:51:48.397Z,895.48
2018-06-21T20:54:18.147Z,886.45
2018-06-21T20:56:46.890Z,876.62
2018-06-21T20:59:15.530Z,880.75
2018-06-21T21:01:44.188Z,869.25
2018-06-21T21:04:13.947Z,866.75
2018-06-21T21:06:48.451Z,862.55
2018-06-21T21:09:17.098Z,864.12
2018-06-21T21:11:45.818Z,889.32
2018-06-21T21:14:16.571Z,894.53
2018-06-21T21:16:45.276Z,894.50
2018-06-21T21:19:14.977Z,864.10
2018-06-21T21:21:43.732Z,868.37
2018-06-21T21:24:14.625Z,874.20
2018-06-21T21:26:43.310Z,879.83
2018-06-21T21:29:12.003Z,863.95
2018-06-21T21:31:41.441Z,864.40
2018-06-21T21:34:10.002Z,846.55
2018-06-21T21:36:38.755Z,871.93
2018-06-21T21:39:08.912Z,872.70
2018-06-21T21:41:37.543Z,840.50
2018-06-21T21:44:06.526Z,860.58
2018-06-21T21:46:36.070Z,834.42
2018-06-21T21:49:04.829Z,835.02
2018-06-21T21:51:33.527Z,829.83
2018-06-21T21:54:02.230Z,710.87
2018-06-21T21:56:32.857Z,851.85
2018-06-21T21:59:01.569Z,844.17
2018-06-21T22:01:30.306Z,815.35
2018-06-21T22:03:59.929Z,814.02
2018-06-21T22:06:28.863Z,831.75
2018-06-21T22:08:57.599Z,795.38
2018-06-21T22:11:27.291Z,770.45
2018-06-21T22:14:01.266Z,756.35
2018-06-21T22:16:30.965Z,740.80
2018-06-21T22:19:03.631Z,733.62
2018-06-21T22:21:32.464Z,722.67
2018-06-21T22:24:01.113Z,748.23
2018-06-21T22:26:29.782Z,742.60
2018-06-21T22:28:59.574Z,719.33
2018-06-21T22:31:29.348Z,731.23
2018-06-21T22:33:58.050Z,718.00
2018-06-21T22:36:26.671Z,729.23
2018-06-21T22:38:55.283Z,725.45
2018-06-21T22:41:25.961Z,713.03
2018-06-21T22:43:55.667Z,708.30
2018-06-21T22:46:24.317Z,704.87
2018-06-21T22:48:54.022Z,708.07
2018-06-21T22:51:22.630Z,677.23
2018-06-21T22:53:51.350Z,657.17
2018-06-21T22:56:20.015Z,654.00
2018-06-21T22:58:48.289Z,651.40
2018-06-21T23:01:16.987Z,641.40
2018-06-21T23:03:46.718Z,637.12
2018-06-21T23:06:15.419Z,631.63
2018-06-21T23:08:44.160Z,625.53
2018-06-21T23:11:12.907Z,626.75
2018-06-21T23:13:43.850Z,659.87
2018-06-21T23:16:16.259Z,636.00
2018-06-21T23:18:56.143Z,660.35
2018-06-21T23:21:25.891Z,637.45
2018-06-21T23:23:55.532Z,634.90
2018-06-21T23:26:24.250Z,638.83
2018-06-21T23:28:52.990Z,629.20
2018-06-21T23:31:21.556Z,643.20
2018-06-21T23:33:52.203Z,643.77
2018-06-21T23:36:21.913Z,639.07
2018-06-21T23:38:54.212Z,632.77
2018-06-21T23:43:15.836Z,624.02
2018-06-21T23:45:45.599Z,637.90
2018-06-21T23:48:16.229Z,636.20
2018-06-21T23:50:45.108Z,624.75
2018-06-21T23:53:13.728Z,632.60
2018-06-21T23:55:42.871Z,641.27
2018-06-21T23:58:11.190Z,636.10
